createdAt,value
2022-10-26T00:07:08.088Z,10.07
2022-10-26T00:17:11.056Z,10.12
2022-10-26T00:27:15.366Z,10.22
2022-10-26T00:37:18.322Z,10.34
2022-10-26T00:47:30.178Z,10.41
2022-10-26T00:57:33.419Z,10.47
2022-10-26T01:07:37.955Z,10.57
2022-10-26T01:17:56.034Z,10.62
2022-10-26T01:28:03.741Z,10.67
2022-10-26T01:38:12.775Z,10.71
2022-10-26T01:48:20.139Z,10.69
2022-10-26T01:59:01.754Z,10.64
2022-10-26T02:09:14.547Z,10.54
2022-10-26T02:19:32.486Z,10.56
2022-10-26T02:29:38.313Z,10.64
2022-10-26T02:39:42.880Z,10.74
2022-10-26T02:49:47.272Z,10.76
2022-10-26T02:59:51.010Z,10.74
2022-10-26T03:09:55.263Z,10.79
2022-10-26T03:19:58.174Z,10.85
2022-10-26T03:30:02.529Z,10.88
2022-10-26T03:40:06.111Z,10.90
2022-10-26T03:50:11.210Z,10.85
2022-10-26T04:00:15.819Z,10.83
2022-10-26T04:10:21.379Z,10.80
2022-10-26T04:20:24.490Z,10.85
2022-10-26T04:30:29.022Z,10.99
2022-10-26T04:40:33.710Z,11.16
2022-10-26T04:50:38.798Z,11.27
2022-10-26T05:00:41.823Z,11.38
2022-10-26T05:10:49.852Z,11.45
2022-10-26T05:20:54.592Z,11.50
2022-10-26T05:30:59.944Z,11.54
2022-10-26T05:41:02.868Z,11.58
2022-10-26T05:51:07.343Z,11.58
2022-10-26T06:01:19.662Z,11.54
2022-10-26T06:11:24.727Z,11.54
2022-10-26T06:21:39.668Z,11.48
2022-10-26T06:31:43.945Z,11.46
2022-10-26T06:41:47.359Z,11.35
2022-10-26T06:51:58.309Z,11.54
2022-10-26T07:02:04.206Z,11.65
2022-10-26T07:12:10.829Z,11.62
2022-10-26T07:22:13.828Z,11.55
2022-10-26T07:32:18.361Z,11.60
2022-10-26T07:42:21.378Z,11.76
2022-10-26T07:52:25.825Z,12.28
2022-10-26T08:02:29.250Z,12.71
2022-10-26T08:12:33.563Z,13.07
2022-10-26T08:22:36.531Z,13.58
2022-10-26T08:32:42.425Z,13.82
2022-10-26T08:42:50.133Z,14.13
2022-10-26T08:53:04.794Z,14.35
2022-10-26T09:03:14.550Z,14.73
2022-10-26T09:13:27.886Z,15.12
2022-10-26T09:23:44.331Z,15.48
2022-10-26T09:33:48.958Z,15.88
2022-10-26T09:43:58.175Z,16.15
2022-10-26T09:54:03.236Z,16.20
2022-10-26T10:04:21.217Z,16.28
2022-10-26T10:14:27.289Z,16.38
2022-10-26T10:24:32.582Z,16.57
2022-10-26T10:34:36.944Z,16.83
2022-10-26T10:44:39.943Z,17.06
2022-10-26T10:54:44.347Z,17.27
2022-10-26T11:05:03.710Z,17.54
2022-10-26T11:15:12.751Z,17.78
2022-10-26T11:25:23.611Z,17.86
2022-10-26T11:35:32.358Z,17.97
2022-10-26T11:45:39.801Z,18.15
2022-10-26T11:55:47.300Z,18.10
2022-10-26T12:05:52.290Z,18.05
2022-10-26T12:16:04.433Z,18.22
2022-10-26T12:26:43.315Z,18.43
2022-10-26T12:37:05.570Z,18.72
2022-10-26T12:47:08.896Z,18.78
2022-10-26T12:57:21.413Z,18.81
2022-10-26T13:07:26.084Z,18.83
2022-10-26T13:27:44.342Z,18.93
2022-10-26T13:37:51.673Z,18.99
2022-10-26T13:48:00.024Z,19.11
2022-10-26T13:58:16.464Z,19.00
2022-10-26T14:08:22.412Z,18.94
2022-10-26T14:18:29.339Z,18.90
2022-10-26T14:28:34.286Z,18.84
2022-10-26T14:38:46.142Z,18.84
2022-10-26T14:48:54.742Z,18.84
2022-10-26T14:58:59.772Z,18.69
2022-10-26T15:09:06.672Z,18.43
2022-10-26T15:19:12.881Z,18.20
2022-10-26T15:29:38.674Z,18.14
2022-10-26T15:39:42.952Z,18.17
2022-10-26T15:49:46.096Z,17.96
2022-10-26T15:59:50.432Z,17.85
2022-10-26T16:09:53.803Z,17.68
2022-10-26T16:19:58.158Z,17.40
2022-10-26T16:30:01.076Z,17.07
2022-10-26T16:40:06.856Z,16.73
2022-10-26T16:50:16.079Z,16.45
2022-10-26T17:00:20.807Z,16.30
2022-10-26T17:10:25.753Z,16.17
2022-10-26T17:20:30.365Z,15.98
2022-10-26T17:30:34.935Z,15.80
2022-10-26T17:40:39.382Z,15.61
2022-10-26T17:50:42.351Z,15.50
2022-10-26T18:00:49.279Z,15.43
2022-10-26T18:10:55.296Z,15.32
2022-10-26T18:21:03.190Z,15.23
2022-10-26T18:31:08.809Z,15.12
2022-10-26T18:41:14.410Z,15.07
2022-10-26T18:51:19.765Z,14.90
2022-10-26T19:01:26.574Z,14.74
2022-10-26T19:11:31.678Z,14.61
2022-10-26T19:21:36.258Z,14.38
2022-10-26T19:31:39.357Z,14.21
2022-10-26T19:41:43.873Z,14.17
2022-10-26T19:51:47.881Z,14.09
2022-10-26T20:01:52.372Z,13.96
2022-10-26T20:11:55.363Z,13.98
2022-10-26T20:21:59.668Z,13.93
2022-10-26T20:32:02.668Z,13.93
2022-10-26T20:42:07.791Z,13.91
2022-10-26T20:52:21.278Z,13.87
2022-10-26T21:02:27.808Z,13.90
2022-10-26T21:12:30.773Z,13.86
2022-10-26T21:22:35.002Z,13.79
2022-10-26T21:32:38.105Z,13.74
2022-10-26T21:42:42.432Z,13.81
2022-10-26T21:52:45.421Z,13.97
2022-10-26T22:02:50.367Z,13.95
2022-10-26T22:12:53.542Z,14.09
2022-10-26T22:22:57.970Z,14.19
2022-10-26T22:33:00.906Z,14.17
2022-10-26T22:43:05.193Z,14.02
2022-10-26T22:53:08.092Z,13.79
2022-10-26T23:03:12.377Z,13.59
2022-10-26T23:13:15.357Z,13.42
2022-10-26T23:23:19.869Z,13.26
2022-10-26T23:33:23.173Z,13.16
2022-10-26T23:43:28.815Z,13.08
2022-10-26T23:53:31.778Z,12.99
